NCAR-RAP Real-Time Weather Data

Output produced by METARs form (12 May 2021  11:03 UTC)
found at http://weather.rap.ucar.edu/surface/
 
KLIT 121053Z 03008KT 10SM FEW045 OVC065 13/09 A3021 RMK AO2 SLP232 T01280089
KLIT 120953Z 03008KT 10SM BKN045 OVC060 13/11 A3018 RMK AO2 SLP223 T01280106
KLIT 120853Z 03006KT 10SM BKN045 BKN060 OVC090 13/11 A3017 RMK AO2 SLP218 T01280111 50003
KLIT 120753Z 03007KT 10SM BKN045 OVC060 13/11 A3017 RMK AO2 SLP217 T01330111
KLIT 120653Z 03006KT 10SM BKN035 OVC044 13/11 A3016 RMK AO2 SLP214 T01330111
KLIT 120553Z 05006KT 10SM FEW012 OVC035 13/11 A3016 RMK AO2 SLP214 60002 T01280111 10128 20128 401720122 53003
KLIT 120541Z 04008KT 10SM FEW009 SCT012 OVC033 13/11 A3015 RMK AO2 T01280111
KLIT 120453Z 04008KT 10SM BKN009 BKN012 OVC024 13/11 A3015 RMK AO2 SLP209 T01280111
KLIT 120353Z 03009KT 10SM BKN009 BKN021 OVC034 13/12 A3015 RMK AO2 SLP210 T01280117
KLIT 120311Z 02009KT 10SM BKN006 BKN021 OVC034 13/12 A3015 RMK AO2 T01280117
KLIT 120253Z 02009KT 10SM OVC013 13/12 A3015 RMK AO2 SLP210 60002 T01280117 53007
KLIT 120153Z 03005KT 10SM BKN010 OVC013 13/12 A3014 RMK AO2 RAE40 SLP207 P0000 T01280117
KLIT 120053Z 08010KT 7SM -RA BKN010 BKN055 OVC110 13/12 A3011 RMK AO2 SLP198 P0002 T01280117
KLIT 112353Z 07010KT 3SM RA BR BKN013 BKN080 OVC095 13/12 A3013 RMK AO2 SLP204 P0019 60081 T01280117 10167 20122 50010
KLIT 112346Z 06009KT 3SM RA BR BKN013 BKN080 OVC095 13/12 A3014 RMK AO2 P0018 T01280117
KLIT 112253Z 01008KT 4SM RA BR SCT065 OVC100 13/12 A3016 RMK AO2 TSE17 SLP215 TS MOVD E P0015 T01280117
KLIT 112217Z 02009G17KT 3SM RA BR FEW012 BKN065 OVC100 13/11 A3013 RMK AO2 LTG DSNT NE AND E TSE17 TS MOVD E P0010 T01280111
KLIT 112153Z 01010KT 3SM TSRA BKN033CB BKN050 OVC070 12/11 A3016 RMK AO2 LTG DSNT N-E SLP214 OCNL LTGIC NE-SE TS NE-SE MOV E P0031 T01220111
KLIT 112137Z 35008G18KT 2 1/2SM TSRA BKN033CB OVC050 13/11 A3016 RMK AO2 LTG DSNT E AND SE OCNL LTGIC NE-SE TS NE-SE MOV E P0022 T01280111
KLIT 112053Z 35017KT 3SM +TSRA BKN036CB BKN055 OVC070 13/12 A3010 RMK AO2 LTG DSNT ALQDS TSE20B33 PRESRR SLP194 OCNL LTGIC ALQDS TS ALQDS MOV E P0011 60016 T01330117 55009
KLIT 112033Z 03009KT 3SM +TSRA BKN036CB BKN055 OVC070 14/12 A3007 RMK AO2 LTG DSNT W AND NW TSE20B33 OCNL LTGIC W-NW TS W-NW MOV E P0004 T01390117
KLIT 112020Z 05005KT 5SM -RA BR BKN036 OVC050 14/11 A3009 RMK AO2 LTG DSNT W TSE20 TS MOVD E P0001 T01440111